createdAt,value
2019-06-26T00:02:26.124Z,14.43
2019-06-26T00:04:53.516Z,15.57
2019-06-26T00:07:20.971Z,14.73
2019-06-26T00:09:48.384Z,14.10
2019-06-26T00:12:15.713Z,17.70
2019-06-26T00:14:43.059Z,16.90
2019-06-26T00:17:10.421Z,15.67
2019-06-26T00:19:37.810Z,17.10
2019-06-26T00:22:05.149Z,18.17
2019-06-26T00:24:32.583Z,17.63
2019-06-26T00:26:59.928Z,16.30
2019-06-26T00:29:27.366Z,15.30
2019-06-26T00:31:55.107Z,16.20
2019-06-26T00:34:22.555Z,18.47
2019-06-26T00:36:50.055Z,18.33
2019-06-26T00:39:17.659Z,17.23
2019-06-26T00:41:45.082Z,17.07
2019-06-26T00:44:12.443Z,16.97
2019-06-26T00:46:39.777Z,15.33
2019-06-26T00:49:07.063Z,14.30
2019-06-26T00:51:34.403Z,17.63
2019-06-26T00:54:01.735Z,16.77
2019-06-26T00:56:29.170Z,17.20
2019-06-26T00:58:56.575Z,18.40
2019-06-26T01:01:23.913Z,18.63
2019-06-26T01:03:53.027Z,17.27
2019-06-26T01:06:38.613Z,18.73
2019-06-26T01:09:06.373Z,17.43
2019-06-26T01:11:33.809Z,18.93
2019-06-26T01:14:01.162Z,19.90
2019-06-26T01:16:28.632Z,19.60
2019-06-26T01:18:55.956Z,17.70
2019-06-26T01:21:23.378Z,18.30
2019-06-26T01:23:50.698Z,19.67
2019-06-26T01:26:17.988Z,19.03
2019-06-26T01:28:45.426Z,22.33
2019-06-26T01:31:12.731Z,22.50
2019-06-26T01:33:40.153Z,21.07
2019-06-26T01:36:07.471Z,21.43
2019-06-26T01:38:34.940Z,19.63
2019-06-26T01:41:02.253Z,19.83
2019-06-26T01:43:29.558Z,17.23
2019-06-26T01:45:56.852Z,16.30
2019-06-26T01:48:24.204Z,16.40
2019-06-26T01:50:51.602Z,16.13
2019-06-26T01:53:18.970Z,14.73
2019-06-26T01:55:46.289Z,15.07
2019-06-26T01:58:13.573Z,15.33
2019-06-26T02:00:40.936Z,13.43
2019-06-26T02:03:08.201Z,14.00
2019-06-26T02:05:35.548Z,12.60
2019-06-26T02:08:02.974Z,14.70
2019-06-26T02:10:30.370Z,16.57
2019-06-26T02:12:57.685Z,15.50
2019-06-26T02:15:25.116Z,14.83
2019-06-26T02:17:52.430Z,15.93
2019-06-26T02:20:20.131Z,17.87
2019-06-26T02:22:49.530Z,16.20
2019-06-26T02:25:17.025Z,13.97
2019-06-26T02:27:44.536Z,14.93
2019-06-26T02:30:12.028Z,14.13
2019-06-26T02:32:39.655Z,11.83
2019-06-26T02:35:09.885Z,13.50
2019-06-26T02:37:36.304Z,14.43
2019-06-26T02:40:04.380Z,16.33
2019-06-26T02:42:31.905Z,15.60
2019-06-26T02:44:59.193Z,15.87
2019-06-26T02:47:26.846Z,14.87
2019-06-26T02:49:54.482Z,15.70
2019-06-26T02:52:21.808Z,16.70
2019-06-26T02:54:49.137Z,16.13
2019-06-26T02:57:16.555Z,16.60
2019-06-26T02:59:43.850Z,17.40
2019-06-26T03:02:11.295Z,16.20
2019-06-26T03:04:38.682Z,14.60
2019-06-26T03:07:06.002Z,15.60
2019-06-26T03:09:33.303Z,15.63
2019-06-26T03:12:00.654Z,15.13
2019-06-26T03:14:28.062Z,14.50
2019-06-26T03:16:55.854Z,15.17
2019-06-26T03:19:23.241Z,14.80
2019-06-26T03:21:50.557Z,15.83
2019-06-26T03:24:17.959Z,15.87
2019-06-26T03:26:45.340Z,14.83
2019-06-26T03:29:12.734Z,15.30
2019-06-26T03:31:40.157Z,15.67
2019-06-26T03:34:07.637Z,14.73
2019-06-26T03:36:35.010Z,14.30
2019-06-26T03:39:04.262Z,14.83
2019-06-26T03:41:31.547Z,14.37
2019-06-26T03:43:58.877Z,14.10
2019-06-26T03:46:26.288Z,13.17
2019-06-26T03:48:53.696Z,12.80
2019-06-26T03:51:20.995Z,13.03
2019-06-26T03:53:48.312Z,13.70
2019-06-26T03:56:15.722Z,13.10
2019-06-26T03:58:43.051Z,14.70
2019-06-26T04:01:10.706Z,12.90
2019-06-26T04:03:38.108Z,15.30
2019-06-26T04:06:05.551Z,15.93
2019-06-26T04:08:32.943Z,14.80
2019-06-26T04:11:00.378Z,15.43
2019-06-26T04:13:27.797Z,15.70
2019-06-26T04:15:55.123Z,12.63
2019-06-26T04:18:22.566Z,13.90
2019-06-26T04:20:49.919Z,13.27
2019-06-26T04:23:17.264Z,16.00
2019-06-26T04:25:44.605Z,14.03
2019-06-26T04:28:11.939Z,14.90
2019-06-26T04:30:39.369Z,16.50
2019-06-26T04:33:06.667Z,16.50
2019-06-26T04:35:34.053Z,17.83
2019-06-26T04:38:01.418Z,18.80
2019-06-26T04:40:29.066Z,17.77
2019-06-26T04:42:56.523Z,18.50
2019-06-26T04:45:23.890Z,17.60
2019-06-26T04:47:51.213Z,16.70
2019-06-26T04:50:21.297Z,18.63
2019-06-26T04:52:48.675Z,17.97
2019-06-26T04:55:16.052Z,18.60
2019-06-26T04:57:43.481Z,18.53
2019-06-26T05:00:11.310Z,19.30
2019-06-26T05:02:38.642Z,22.33
2019-06-26T05:05:06.437Z,20.13
2019-06-26T05:07:34.167Z,22.50
2019-06-26T05:10:01.586Z,23.30
2019-06-26T05:12:29.046Z,23.00
2019-06-26T05:14:56.707Z,24.20
2019-06-26T05:17:24.449Z,23.87
2019-06-26T05:19:51.783Z,26.20
2019-06-26T05:22:19.113Z,25.27
2019-06-26T05:24:46.666Z,27.93
2019-06-26T05:27:14.170Z,27.07
2019-06-26T05:29:41.550Z,26.40
2019-06-26T05:32:08.868Z,29.63
2019-06-26T05:34:36.285Z,26.57
2019-06-26T05:37:04.104Z,28.77
2019-06-26T05:39:31.836Z,29.43
2019-06-26T05:41:59.273Z,28.47
2019-06-26T05:44:26.615Z,32.73
2019-06-26T05:46:54.032Z,30.60
2019-06-26T05:49:21.372Z,32.30
2019-06-26T05:51:48.672Z,33.90
2019-06-26T05:54:16.132Z,34.43
2019-06-26T05:56:45.445Z,31.70
2019-06-26T05:59:12.664Z,35.40
2019-06-26T06:01:39.985Z,31.03
2019-06-26T06:04:07.337Z,32.47
2019-06-26T06:06:41.741Z,37.33
2019-06-26T06:09:05.393Z,39.80
2019-06-26T06:11:32.744Z,35.70
2019-06-26T06:14:00.080Z,33.93
2019-06-26T06:16:27.558Z,35.93
2019-06-26T06:18:55.045Z,33.23
2019-06-26T06:21:22.416Z,32.17
2019-06-26T06:23:49.790Z,33.93
2019-06-26T06:26:17.214Z,34.47
2019-06-26T06:28:44.614Z,34.23
2019-06-26T06:31:12.004Z,32.60
2019-06-26T06:33:39.646Z,32.43
2019-06-26T06:36:09.642Z,34.23
2019-06-26T06:38:36.419Z,35.43
2019-06-26T06:41:03.874Z,31.13
2019-06-26T06:43:31.405Z,31.50
2019-06-26T06:45:59.798Z,33.77
2019-06-26T06:48:27.271Z,31.37
2019-06-26T06:50:54.935Z,30.57
2019-06-26T06:53:24.634Z,31.60
2019-06-26T06:55:51.971Z,28.30
2019-06-26T06:58:20.294Z,28.07
2019-06-26T07:00:48.055Z,29.20
2019-06-26T07:03:16.724Z,30.93
2019-06-26T07:05:44.119Z,28.30
2019-06-26T07:08:11.507Z,29.93
2019-06-26T07:10:40.238Z,26.40
2019-06-26T07:13:08.396Z,24.60
2019-06-26T07:15:35.827Z,25.23
2019-06-26T07:18:03.544Z,26.13
2019-06-26T07:20:30.992Z,24.67
2019-06-26T07:22:58.687Z,26.53
2019-06-26T07:25:26.102Z,23.53
2019-06-26T07:27:53.507Z,27.27
2019-06-26T07:30:21.738Z,29.00
2019-06-26T07:32:49.282Z,30.30
2019-06-26T07:35:16.600Z,24.90
2019-06-26T07:37:43.874Z,25.33
2019-06-26T07:40:11.516Z,27.93
2019-06-26T07:42:38.810Z,25.30
2019-06-26T07:45:06.910Z,24.50
2019-06-26T07:47:43.062Z,24.73
2019-06-26T07:50:03.924Z,23.67
2019-06-26T07:52:31.277Z,20.80
2019-06-26T07:54:58.730Z,22.93
2019-06-26T07:57:26.046Z,19.93
2019-06-26T07:59:53.391Z,18.90
2019-06-26T08:02:20.783Z,19.33
2019-06-26T08:04:48.586Z,17.97
2019-06-26T08:07:15.943Z,19.53
2019-06-26T08:09:43.631Z,19.70
2019-06-26T08:12:11.030Z,18.90
2019-06-26T08:14:38.484Z,19.53
2019-06-26T08:17:05.954Z,16.33
2019-06-26T08:19:33.375Z,17.03
2019-06-26T08:22:00.727Z,16.30
2019-06-26T08:24:28.126Z,18.90
2019-06-26T08:26:55.523Z,16.43
2019-06-26T08:29:22.890Z,18.07
2019-06-26T08:31:50.482Z,16.83
2019-06-26T08:34:18.029Z,19.00
2019-06-26T08:36:45.593Z,16.73
2019-06-26T08:39:13.361Z,16.27
2019-06-26T08:41:40.835Z,18.23
2019-06-26T08:44:08.310Z,16.33
2019-06-26T08:46:36.117Z,16.53
2019-06-26T08:49:03.625Z,16.23
2019-06-26T08:51:31.127Z,20.07
2019-06-26T08:53:58.661Z,15.33
2019-06-26T08:56:26.279Z,15.33
2019-06-26T08:58:53.849Z,14.03
2019-06-26T09:01:21.347Z,16.27
2019-06-26T09:03:48.820Z,15.77
2019-06-26T09:06:16.213Z,13.70
2019-06-26T09:08:43.649Z,14.40
2019-06-26T09:11:11.011Z,13.80
2019-06-26T09:13:38.472Z,16.20
2019-06-26T09:16:05.904Z,14.00
2019-06-26T09:18:35.879Z,13.43
2019-06-26T09:21:02.719Z,16.80
2019-06-26T09:23:32.473Z,16.37
2019-06-26T09:25:59.776Z,13.97
2019-06-26T09:28:27.232Z,13.93
2019-06-26T09:30:54.682Z,15.23
2019-06-26T09:33:22.018Z,13.50
2019-06-26T09:35:49.526Z,13.53
2019-06-26T09:38:17.027Z,14.47
2019-06-26T09:40:44.383Z,13.77
2019-06-26T09:43:11.695Z,13.33
2019-06-26T09:45:39.113Z,12.10
2019-06-26T09:48:09.397Z,12.10
2019-06-26T09:50:36.845Z,12.07
2019-06-26T09:53:05.564Z,12.77
2019-06-26T09:55:33.517Z,13.43
2019-06-26T09:58:01.299Z,12.93
2019-06-26T10:00:28.999Z,12.93
2019-06-26T10:02:56.409Z,13.23
2019-06-26T10:05:23.787Z,12.57
2019-06-26T10:07:51.267Z,11.37
2019-06-26T10:10:19.327Z,12.57
2019-06-26T10:12:46.918Z,10.90
2019-06-26T10:15:15.568Z,10.80
2019-06-26T10:17:43.073Z,11.07
2019-06-26T10:20:10.919Z,11.00
2019-06-26T10:22:38.445Z,10.53
2019-06-26T10:25:10.109Z,10.37
2019-06-26T10:27:35.816Z,10.40
2019-06-26T10:30:04.364Z,9.63
2019-06-26T10:32:32.894Z,9.00
2019-06-26T10:35:00.377Z,10.13
2019-06-26T10:37:27.857Z,12.77
2019-06-26T10:39:55.261Z,9.93
2019-06-26T10:42:23.218Z,12.77
2019-06-26T10:44:50.822Z,9.63
2019-06-26T10:47:18.276Z,9.97
2019-06-26T10:49:46.110Z,10.63
2019-06-26T10:52:13.570Z,10.77
2019-06-26T10:54:44.324Z,11.00
2019-06-26T10:57:16.793Z,10.03
2019-06-26T10:59:44.387Z,10.40
2019-06-26T11:02:11.871Z,9.53
2019-06-26T11:04:39.500Z,9.80
2019-06-26T11:07:06.925Z,10.80
2019-06-26T11:09:34.503Z,11.10
2019-06-26T11:12:01.938Z,10.20
2019-06-26T11:14:29.369Z,8.73
2019-06-26T11:16:56.929Z,9.27
2019-06-26T11:19:24.335Z,9.33
2019-06-26T11:21:52.134Z,7.93
2019-06-26T11:24:20.066Z,8.93
2019-06-26T11:26:47.634Z,7.70
2019-06-26T11:29:15.977Z,7.47
2019-06-26T11:31:43.759Z,7.23
2019-06-26T11:34:16.702Z,6.43
2019-06-26T11:37:02.721Z,7.13
2019-06-26T11:39:17.679Z,6.50
2019-06-26T11:41:45.111Z,9.03
2019-06-26T11:44:14.807Z,6.77
2019-06-26T11:46:42.176Z,7.37
2019-06-26T11:49:09.697Z,8.33
2019-06-26T11:51:37.238Z,8.27
2019-06-26T11:54:04.977Z,10.93
2019-06-26T11:56:32.485Z,10.00
2019-06-26T11:59:02.142Z,8.90
2019-06-26T12:01:29.662Z,6.80
2019-06-26T12:03:57.084Z,7.03
2019-06-26T12:06:24.536Z,8.90
2019-06-26T12:08:51.920Z,12.83
2019-06-26T12:11:19.365Z,6.03
2019-06-26T12:13:46.871Z,7.50
2019-06-26T12:16:14.322Z,6.73
2019-06-26T12:18:41.977Z,7.60
2019-06-26T12:21:09.792Z,11.23
2019-06-26T12:23:37.178Z,12.70
2019-06-26T12:26:04.606Z,6.65
2019-06-26T12:28:32.054Z,6.55
2019-06-26T12:30:59.915Z,7.83
2019-06-26T12:33:27.469Z,7.05
2019-06-26T12:35:54.897Z,7.87
2019-06-26T12:38:22.258Z,7.85
2019-06-26T12:40:49.717Z,8.45
2019-06-26T12:43:17.159Z,7.92
2019-06-26T12:45:44.694Z,8.48
2019-06-26T12:48:15.200Z,8.80
2019-06-26T12:50:41.526Z,8.15
2019-06-26T12:53:08.998Z,8.10
2019-06-26T12:55:36.482Z,9.50
2019-06-26T12:58:13.681Z,9.63
2019-06-26T13:00:33.335Z,9.10
2019-06-26T13:03:00.876Z,8.68
2019-06-26T13:05:28.383Z,9.95
2019-06-26T13:07:56.052Z,9.35
2019-06-26T13:10:23.787Z,9.30
2019-06-26T13:12:51.285Z,8.40
2019-06-26T13:15:18.974Z,7.97
2019-06-26T13:17:48.812Z,8.78
2019-06-26T13:20:16.719Z,11.68
2019-06-26T13:22:44.203Z,8.55
2019-06-26T13:25:15.749Z,7.92
2019-06-26T13:27:42.275Z,8.60
2019-06-26T13:30:10.287Z,8.65
2019-06-26T13:32:37.691Z,8.23
2019-06-26T13:35:06.081Z,8.73
2019-06-26T13:37:33.461Z,8.48
2019-06-26T13:40:00.788Z,7.85
2019-06-26T13:42:28.241Z,8.98
2019-06-26T13:44:55.617Z,8.03
2019-06-26T13:47:23.068Z,10.75
2019-06-26T13:49:50.545Z,8.63
2019-06-26T13:52:18.176Z,6.78
2019-06-26T13:54:45.644Z,7.53
2019-06-26T13:57:15.800Z,6.58
2019-06-26T13:59:42.370Z,6.95
2019-06-26T14:02:09.789Z,7.75
2019-06-26T14:04:38.400Z,5.95
2019-06-26T14:07:08.572Z,6.12
2019-06-26T14:09:35.023Z,8.50
2019-06-26T14:12:02.467Z,7.00
2019-06-26T14:14:52.641Z,9.48
2019-06-26T14:16:59.232Z,9.33
2019-06-26T14:19:26.977Z,7.33
2019-06-26T14:21:54.666Z,9.58
2019-06-26T14:24:22.124Z,5.80
2019-06-26T14:26:49.549Z,7.83
2019-06-26T14:29:21.023Z,4.87
2019-06-26T14:31:46.280Z,7.17
2019-06-26T14:34:13.729Z,8.90
2019-06-26T14:36:41.498Z,7.07
2019-06-26T14:39:08.865Z,11.73
2019-06-26T14:41:39.081Z,8.77
2019-06-26T14:44:05.643Z,11.97
2019-06-26T14:46:33.083Z,14.80
2019-06-26T14:49:00.553Z,8.17
2019-06-26T14:51:41.803Z,10.50
2019-06-26T14:53:57.206Z,8.40
2019-06-26T14:56:24.582Z,4.83
2019-06-26T14:58:51.973Z,5.37
2019-06-26T15:01:19.318Z,4.27
2019-06-26T15:03:47.105Z,11.40
2019-06-26T15:06:16.954Z,7.80
2019-06-26T15:08:44.362Z,8.40
2019-06-26T15:11:14.645Z,6.03
2019-06-26T15:13:41.527Z,10.47
2019-06-26T15:16:08.882Z,7.60
2019-06-26T15:18:36.268Z,6.47
2019-06-26T15:21:03.624Z,6.05
2019-06-26T15:23:31.283Z,6.05
2019-06-26T15:25:59.046Z,8.75
2019-06-26T15:28:26.387Z,9.43
2019-06-26T15:30:53.687Z,7.40
2019-06-26T15:33:21.131Z,6.87
2019-06-26T15:35:48.434Z,7.55
2019-06-26T15:38:16.281Z,8.98
2019-06-26T15:40:44.022Z,6.42
2019-06-26T15:43:11.339Z,7.17
2019-06-26T15:45:39.425Z,6.72
2019-06-26T15:48:06.892Z,6.83
2019-06-26T15:50:34.712Z,13.27
2019-06-26T15:53:02.456Z,9.77
2019-06-26T15:55:29.885Z,10.90
2019-06-26T15:57:57.289Z,12.00
2019-06-26T16:00:25.194Z,14.07
2019-06-26T16:02:52.512Z,7.40
2019-06-26T16:05:19.893Z,11.03
2019-06-26T16:07:47.320Z,9.90
2019-06-26T16:10:15.600Z,5.57
2019-06-26T16:12:42.958Z,9.40
2019-06-26T16:15:10.734Z,6.13
2019-06-26T16:18:03.614Z,10.77
2019-06-26T16:20:31.151Z,8.37
2019-06-26T16:22:58.651Z,7.67
2019-06-26T16:25:26.098Z,7.17
2019-06-26T16:28:04.716Z,7.80
2019-06-26T16:30:23.021Z,7.40
2019-06-26T16:32:50.416Z,7.77
2019-06-26T16:35:18.130Z,6.83
2019-06-26T16:37:45.584Z,7.47
2019-06-26T16:40:12.916Z,8.20
2019-06-26T16:42:40.374Z,8.77
2019-06-26T16:45:08.004Z,6.80
2019-06-26T16:47:35.328Z,13.70
2019-06-26T16:50:02.869Z,6.50
2019-06-26T16:52:30.312Z,14.80
2019-06-26T16:54:57.982Z,12.80
2019-06-26T16:57:25.385Z,6.93
2019-06-26T17:00:08.459Z,10.80
2019-06-26T17:02:22.068Z,6.67
2019-06-26T17:04:49.831Z,8.73
2019-06-26T17:07:17.147Z,7.67
2019-06-26T17:09:44.580Z,10.83
2019-06-26T17:12:11.985Z,8.43
2019-06-26T17:14:39.585Z,7.77
2019-06-26T17:17:07.126Z,7.40
2019-06-26T17:19:34.582Z,7.13
2019-06-26T17:22:02.160Z,10.13
2019-06-26T17:24:29.555Z,9.50
2019-06-26T17:26:59.360Z,9.13
2019-06-26T17:29:26.238Z,7.43
2019-06-26T17:31:53.673Z,8.30
2019-06-26T17:34:21.179Z,8.63
2019-06-26T17:36:48.570Z,7.10
2019-06-26T17:39:15.974Z,8.43
2019-06-26T17:41:44.179Z,7.70
2019-06-26T17:44:11.883Z,8.90
2019-06-26T17:46:39.262Z,7.90
2019-06-26T17:49:06.710Z,10.73
2019-06-26T17:51:34.280Z,12.07
2019-06-26T17:54:02.077Z,7.10
2019-06-26T17:56:29.570Z,8.77
2019-06-26T17:58:57.052Z,9.97
2019-06-26T18:01:24.481Z,10.47
2019-06-26T18:03:52.003Z,8.87
2019-06-26T18:06:19.490Z,11.20
2019-06-26T18:08:47.253Z,9.50
2019-06-26T18:11:14.579Z,9.00
2019-06-26T18:13:41.961Z,15.97
2019-06-26T18:16:09.343Z,11.53
2019-06-26T18:18:36.838Z,9.60
2019-06-26T18:21:05.663Z,8.47
2019-06-26T18:23:38.032Z,10.50
2019-06-26T18:26:12.316Z,9.40
2019-06-26T18:28:32.056Z,8.70
2019-06-26T18:30:59.591Z,9.40
2019-06-26T18:33:26.975Z,11.50
2019-06-26T18:35:54.828Z,12.77
2019-06-26T18:38:22.272Z,11.23
2019-06-26T18:40:49.768Z,10.30
2019-06-26T18:43:17.256Z,10.87
2019-06-26T18:45:44.800Z,9.17
2019-06-26T18:48:12.153Z,10.43
2019-06-26T18:50:39.721Z,8.97
2019-06-26T18:53:07.340Z,13.17
2019-06-26T18:55:34.855Z,9.93
2019-06-26T18:58:02.420Z,9.47
2019-06-26T19:00:29.912Z,9.03
2019-06-26T19:02:57.417Z,9.53
2019-06-26T19:05:25.357Z,9.03
2019-06-26T19:07:53.374Z,11.00
2019-06-26T19:10:21.676Z,8.63
2019-06-26T19:12:49.151Z,9.10
2019-06-26T19:15:16.717Z,10.23
2019-06-26T19:17:44.285Z,10.73
2019-06-26T19:20:13.299Z,12.33
2019-06-26T19:22:40.732Z,8.67
2019-06-26T19:25:09.139Z,10.50
2019-06-26T19:27:36.644Z,9.43
2019-06-26T19:30:05.372Z,10.93
2019-06-26T19:32:37.170Z,13.77
2019-06-26T19:35:08.193Z,13.97
2019-06-26T19:37:32.530Z,9.37
2019-06-26T19:40:00.373Z,10.37
2019-06-26T19:42:28.224Z,10.80
2019-06-26T19:44:55.894Z,12.03
2019-06-26T19:47:23.550Z,10.50
2019-06-26T19:49:51.301Z,9.90
2019-06-26T19:52:18.889Z,11.57
2019-06-26T19:54:46.489Z,11.47
2019-06-26T19:57:14.133Z,8.13
2019-06-26T19:59:41.641Z,10.93
2019-06-26T20:02:09.142Z,9.87
2019-06-26T20:04:36.675Z,9.53
2019-06-26T20:07:04.796Z,9.07
2019-06-26T20:09:32.326Z,11.20
2019-06-26T20:11:59.795Z,11.60
2019-06-26T20:14:27.754Z,12.40
2019-06-26T20:16:55.209Z,13.17
2019-06-26T20:19:22.761Z,9.00
2019-06-26T20:21:50.732Z,9.23
2019-06-26T20:24:18.150Z,10.17
2019-06-26T20:26:45.684Z,8.67
2019-06-26T20:29:13.207Z,10.90
2019-06-26T20:31:40.701Z,12.00
2019-06-26T20:34:08.412Z,10.60
2019-06-26T20:36:35.920Z,9.70
2019-06-26T20:39:04.310Z,15.00
2019-06-26T20:41:31.809Z,13.93
2019-06-26T20:43:59.338Z,9.73
2019-06-26T20:46:26.832Z,9.33
2019-06-26T20:48:56.129Z,10.70
2019-06-26T20:51:23.473Z,9.60
2019-06-26T20:53:51.035Z,10.85
2019-06-26T20:56:18.507Z,10.20
2019-06-26T20:58:45.983Z,13.10
2019-06-26T21:01:13.438Z,11.97
2019-06-26T21:03:40.894Z,11.60
2019-06-26T21:06:08.369Z,11.33
2019-06-26T21:08:35.772Z,11.97
2019-06-26T21:11:03.183Z,11.50
2019-06-26T21:13:30.626Z,15.73
2019-06-26T21:15:58.209Z,12.40
2019-06-26T21:18:25.684Z,14.57
2019-06-26T21:20:53.167Z,10.90
2019-06-26T21:23:23.331Z,11.13
2019-06-26T21:25:50.287Z,10.70
2019-06-26T21:28:17.914Z,11.47
2019-06-26T21:30:45.352Z,14.33
2019-06-26T21:33:12.752Z,11.17
2019-06-26T21:35:40.185Z,11.83
2019-06-26T21:38:07.606Z,11.53
2019-06-26T21:40:34.992Z,15.37
2019-06-26T21:43:02.747Z,11.73
2019-06-26T21:45:30.507Z,11.33
2019-06-26T21:47:57.946Z,13.40
2019-06-26T21:50:28.714Z,14.93
2019-06-26T21:52:57.831Z,12.30
2019-06-26T21:55:34.303Z,12.03
2019-06-26T21:57:54.940Z,15.40
2019-06-26T22:00:22.860Z,14.67
2019-06-26T22:02:50.323Z,14.70
2019-06-26T22:05:17.847Z,13.40
2019-06-26T22:07:45.276Z,13.87
2019-06-26T22:10:12.714Z,11.47
2019-06-26T22:12:40.353Z,12.60
2019-06-26T22:15:08.538Z,10.07
2019-06-26T22:17:36.261Z,15.27
2019-06-26T22:20:08.064Z,11.40
2019-06-26T22:22:34.220Z,12.20
2019-06-26T22:25:01.686Z,11.47
2019-06-26T22:27:29.483Z,12.40
2019-06-26T22:29:56.879Z,16.50
2019-06-26T22:32:24.281Z,12.57
2019-06-26T22:34:51.726Z,17.40
2019-06-26T22:37:19.223Z,12.57
2019-06-26T22:39:46.741Z,12.03
2019-06-26T22:42:14.222Z,15.00
2019-06-26T22:44:41.487Z,16.10
2019-06-26T22:47:08.869Z,15.57
2019-06-26T22:49:36.350Z,12.40
2019-06-26T22:52:03.907Z,12.93
2019-06-26T22:54:31.372Z,12.43
2019-06-26T22:56:58.930Z,10.90
2019-06-26T22:59:26.238Z,15.03
2019-06-26T23:01:53.578Z,13.43
2019-06-26T23:04:20.882Z,13.17
2019-06-26T23:06:48.326Z,11.23
2019-06-26T23:09:15.627Z,11.53
2019-06-26T23:11:43.086Z,15.00
2019-06-26T23:14:10.438Z,11.37
2019-06-26T23:16:38.020Z,13.47
2019-06-26T23:19:07.954Z,16.87
2019-06-26T23:21:35.331Z,12.97
2019-06-26T23:24:02.815Z,13.27
2019-06-26T23:26:30.400Z,13.57
2019-06-26T23:29:00.883Z,15.17
2019-06-26T23:31:28.778Z,14.73
2019-06-26T23:33:56.172Z,18.93
2019-06-26T23:36:23.513Z,14.00
2019-06-26T23:38:51.060Z,11.20
2019-06-26T23:41:18.533Z,13.40
2019-06-26T23:43:48.026Z,14.10
2019-06-26T23:46:15.606Z,13.60
2019-06-26T23:48:45.680Z,13.00
2019-06-26T23:51:12.384Z,12.07
2019-06-26T23:53:39.836Z,13.53
2019-06-26T23:56:07.633Z,15.63
2019-06-26T23:58:35.318Z,11.60
